sensor_id;sensor_type;location;lat;lon;timestamp;P1;durP1;ratioP1;P2;durP2;ratioP2
57071;SDS011;42956;51.366;11.298;2023-07-30T00:00:54;4.35;;;2.90;;
57071;SDS011;42956;51.366;11.298;2023-07-30T00:03:23;4.65;;;3.50;;
57071;SDS011;42956;51.366;11.298;2023-07-30T00:05:54;9.95;;;3.88;;
57071;SDS011;42956;51.366;11.298;2023-07-30T00:08:24;7.68;;;3.47;;
57071;SDS011;42956;51.366;11.298;2023-07-30T00:10:56;6.13;;;3.35;;
57071;SDS011;42956;51.366;11.298;2023-07-30T00:13:26;5.03;;;3.27;;
57071;SDS011;42956;51.366;11.298;2023-07-30T00:15:58;11.98;;;3.67;;
57071;SDS011;42956;51.366;11.298;2023-07-30T00:18:28;7.25;;;3.45;;
57071;SDS011;42956;51.366;11.298;2023-07-30T00:20:59;7.57;;;3.20;;
57071;SDS011;42956;51.366;11.298;2023-07-30T00:23:29;6.43;;;3.72;;
57071;SDS011;42956;51.366;11.298;2023-07-30T00:25:59;10.25;;;3.70;;
57071;SDS011;42956;51.366;11.298;2023-07-30T00:28:28;5.45;;;3.03;;
57071;SDS011;42956;51.366;11.298;2023-07-30T00:31:01;4.38;;;3.20;;
57071;SDS011;42956;51.366;11.298;2023-07-30T00:33:31;6.70;;;3.20;;
57071;SDS011;42956;51.366;11.298;2023-07-30T00:36:01;6.00;;;3.38;;
57071;SDS011;42956;51.366;11.298;2023-07-30T00:38:31;4.97;;;2.92;;
57071;SDS011;42956;51.366;11.298;2023-07-30T00:41:01;6.78;;;3.60;;
57071;SDS011;42956;51.366;11.298;2023-07-30T00:43:31;3.50;;;3.03;;
57071;SDS011;42956;51.366;11.298;2023-07-30T00:46:06;11.65;;;4.57;;
57071;SDS011;42956;51.366;11.298;2023-07-30T00:48:36;5.43;;;3.65;;
57071;SDS011;42956;51.366;11.298;2023-07-30T00:51:06;5.05;;;3.08;;
57071;SDS011;42956;51.366;11.298;2023-07-30T00:53:36;8.63;;;3.85;;
57071;SDS011;42956;51.366;11.298;2023-07-30T00:56:06;7.32;;;3.50;;
57071;SDS011;42956;51.366;11.298;2023-07-30T00:58:36;5.47;;;4.00;;
57071;SDS011;42956;51.366;11.298;2023-07-30T01:01:08;7.90;;;3.70;;
57071;SDS011;42956;51.366;11.298;2023-07-30T01:03:38;4.97;;;3.30;;
57071;SDS011;42956;51.366;11.298;2023-07-30T01:06:09;4.00;;;3.25;;
57071;SDS011;42956;51.366;11.298;2023-07-30T01:08:38;5.55;;;3.60;;
57071;SDS011;42956;51.366;11.298;2023-07-30T01:11:08;4.07;;;3.10;;
57071;SDS011;42956;51.366;11.298;2023-07-30T01:13:39;4.45;;;3.05;;
57071;SDS011;42956;51.366;11.298;2023-07-30T01:16:16;5.47;;;3.65;;
57071;SDS011;42956;51.366;11.298;2023-07-30T01:18:46;4.22;;;3.17;;
57071;SDS011;42956;51.366;11.298;2023-07-30T01:21:19;7.68;;;3.33;;
57071;SDS011;42956;51.366;11.298;2023-07-30T01:23:49;6.57;;;3.55;;
57071;SDS011;42956;51.366;11.298;2023-07-30T01:26:20;4.88;;;3.30;;
57071;SDS011;42956;51.366;11.298;2023-07-30T01:28:54;4.35;;;3.15;;
57071;SDS011;42956;51.366;11.298;2023-07-30T01:31:25;11.55;;;3.83;;
57071;SDS011;42956;51.366;11.298;2023-07-30T01:33:55;8.02;;;3.70;;
57071;SDS011;42956;51.366;11.298;2023-07-30T01:36:28;5.85;;;3.65;;
57071;SDS011;42956;51.366;11.298;2023-07-30T01:38:58;6.38;;;3.80;;
57071;SDS011;42956;51.366;11.298;2023-07-30T01:41:28;7.15;;;3.65;;
57071;SDS011;42956;51.366;11.298;2023-07-30T01:43:59;7.43;;;3.90;;
57071;SDS011;42956;51.366;11.298;2023-07-30T01:46:29;7.45;;;4.00;;
57071;SDS011;42956;51.366;11.298;2023-07-30T01:48:59;4.95;;;4.03;;
57071;SDS011;42956;51.366;11.298;2023-07-30T01:51:31;6.32;;;3.95;;
57071;SDS011;42956;51.366;11.298;2023-07-30T01:54:02;10.40;;;4.57;;
57071;SDS011;42956;51.366;11.298;2023-07-30T01:56:32;8.85;;;4.40;;
57071;SDS011;42956;51.366;11.298;2023-07-30T01:59:02;6.65;;;4.70;;
57071;SDS011;42956;51.366;11.298;2023-07-30T02:01:32;8.65;;;4.80;;
57071;SDS011;42956;51.366;11.298;2023-07-30T02:04:03;5.15;;;3.83;;
57071;SDS011;42956;51.366;11.298;2023-07-30T02:06:35;6.05;;;4.00;;
57071;SDS011;42956;51.366;11.298;2023-07-30T02:09:05;5.30;;;3.95;;
57071;SDS011;42956;51.366;11.298;2023-07-30T02:11:35;5.15;;;4.28;;
57071;SDS011;42956;51.366;11.298;2023-07-30T02:14:06;8.07;;;4.60;;
57071;SDS011;42956;51.366;11.298;2023-07-30T02:16:35;5.65;;;3.95;;
57071;SDS011;42956;51.366;11.298;2023-07-30T02:19:07;13.30;;;5.32;;
57071;SDS011;42956;51.366;11.298;2023-07-30T02:21:40;7.43;;;4.45;;
57071;SDS011;42956;51.366;11.298;2023-07-30T02:24:10;14.68;;;5.20;;
57071;SDS011;42956;51.366;11.298;2023-07-30T02:26:40;10.55;;;4.95;;
57071;SDS011;42956;51.366;11.298;2023-07-30T02:29:10;11.15;;;4.45;;
57071;SDS011;42956;51.366;11.298;2023-07-30T02:31:40;15.63;;;4.82;;
57071;SDS011;42956;51.366;11.298;2023-07-30T02:34:10;6.93;;;3.95;;
57071;SDS011;42956;51.366;11.298;2023-07-30T02:36:42;6.63;;;4.47;;
57071;SDS011;42956;51.366;11.298;2023-07-30T02:39:12;6.57;;;4.13;;
57071;SDS011;42956;51.366;11.298;2023-07-30T02:41:42;7.78;;;4.57;;
57071;SDS011;42956;51.366;11.298;2023-07-30T02:44:12;17.05;;;4.60;;
57071;SDS011;42956;51.366;11.298;2023-07-30T02:46:42;11.35;;;4.40;;
57071;SDS011;42956;51.366;11.298;2023-07-30T02:49:12;8.15;;;5.00;;
57071;SDS011;42956;51.366;11.298;2023-07-30T02:51:44;9.35;;;4.35;;
57071;SDS011;42956;51.366;11.298;2023-07-30T02:54:16;8.65;;;4.25;;
57071;SDS011;42956;51.366;11.298;2023-07-30T02:56:48;6.00;;;4.20;;
57071;SDS011;42956;51.366;11.298;2023-07-30T02:59:18;8.30;;;4.10;;
57071;SDS011;42956;51.366;11.298;2023-07-30T03:01:47;9.05;;;5.05;;
57071;SDS011;42956;51.366;11.298;2023-07-30T03:04:17;10.90;;;4.72;;
57071;SDS011;42956;51.366;11.298;2023-07-30T03:06:50;7.60;;;4.00;;
57071;SDS011;42956;51.366;11.298;2023-07-30T03:09:20;8.00;;;3.83;;
57071;SDS011;42956;51.366;11.298;2023-07-30T03:11:50;6.55;;;3.67;;
57071;SDS011;42956;51.366;11.298;2023-07-30T03:14:20;8.05;;;4.40;;
57071;SDS011;42956;51.366;11.298;2023-07-30T03:16:50;6.93;;;4.00;;
57071;SDS011;42956;51.366;11.298;2023-07-30T03:19:20;8.43;;;4.40;;
57071;SDS011;42956;51.366;11.298;2023-07-30T03:21:53;9.45;;;4.10;;
57071;SDS011;42956;51.366;11.298;2023-07-30T03:24:23;11.50;;;4.70;;
57071;SDS011;42956;51.366;11.298;2023-07-30T03:26:53;8.65;;;4.30;;
57071;SDS011;42956;51.366;11.298;2023-07-30T03:29:23;4.68;;;4.18;;
57071;SDS011;42956;51.366;11.298;2023-07-30T03:31:53;10.30;;;3.83;;
57071;SDS011;42956;51.366;11.298;2023-07-30T03:34:23;4.40;;;3.78;;
57071;SDS011;42956;51.366;11.298;2023-07-30T03:36:55;11.85;;;4.50;;
57071;SDS011;42956;51.366;11.298;2023-07-30T03:39:27;6.18;;;4.00;;
57071;SDS011;42956;51.366;11.298;2023-07-30T03:41:57;5.68;;;4.10;;
57071;SDS011;42956;51.366;11.298;2023-07-30T03:44:28;3.20;;;2.90;;
57071;SDS011;42956;51.366;11.298;2023-07-30T03:46:58;4.50;;;3.80;;
57071;SDS011;42956;51.366;11.298;2023-07-30T03:49:28;8.50;;;3.60;;
57071;SDS011;42956;51.366;11.298;2023-07-30T03:52:00;8.63;;;4.68;;
57071;SDS011;42956;51.366;11.298;2023-07-30T03:54:30;4.82;;;3.65;;
57071;SDS011;42956;51.366;11.298;2023-07-30T03:57:00;4.55;;;3.53;;
57071;SDS011;42956;51.366;11.298;2023-07-30T03:59:30;5.40;;;3.60;;
57071;SDS011;42956;51.366;11.298;2023-07-30T04:02:00;4.00;;;3.60;;
57071;SDS011;42956;51.366;11.298;2023-07-30T04:04:31;12.10;;;4.45;;
57071;SDS011;42956;51.366;11.298;2023-07-30T04:07:04;6.65;;;3.72;;
57071;SDS011;42956;51.366;11.298;2023-07-30T04:09:33;3.95;;;3.03;;
57071;SDS011;42956;51.366;11.298;2023-07-30T04:12:04;8.63;;;3.35;;
57071;SDS011;42956;51.366;11.298;2023-07-30T04:14:34;9.13;;;4.00;;
57071;SDS011;42956;51.366;11.298;2023-07-30T04:17:04;4.32;;;3.80;;
57071;SDS011;42956;51.366;11.298;2023-07-30T04:19:34;7.32;;;3.50;;
57071;SDS011;42956;51.366;11.298;2023-07-30T04:22:06;7.72;;;3.85;;
57071;SDS011;42956;51.366;11.298;2023-07-30T04:24:37;3.83;;;3.42;;
57071;SDS011;42956;51.366;11.298;2023-07-30T04:27:06;4.68;;;3.90;;
57071;SDS011;42956;51.366;11.298;2023-07-30T04:29:36;7.15;;;3.50;;
57071;SDS011;42956;51.366;11.298;2023-07-30T04:32:07;8.05;;;4.00;;
57071;SDS011;42956;51.366;11.298;2023-07-30T04:34:37;13.55;;;5.07;;
57071;SDS011;42956;51.366;11.298;2023-07-30T04:37:10;7.10;;;4.32;;
57071;SDS011;42956;51.366;11.298;2023-07-30T04:39:39;10.55;;;3.88;;
57071;SDS011;42956;51.366;11.298;2023-07-30T04:42:10;3.72;;;3.42;;
57071;SDS011;42956;51.366;11.298;2023-07-30T04:44:40;5.93;;;3.78;;
57071;SDS011;42956;51.366;11.298;2023-07-30T04:47:10;8.02;;;4.07;;
57071;SDS011;42956;51.366;11.298;2023-07-30T04:49:40;4.95;;;4.18;;
57071;SDS011;42956;51.366;11.298;2023-07-30T04:52:13;7.07;;;3.38;;
57071;SDS011;42956;51.366;11.298;2023-07-30T04:54:43;6.07;;;4.30;;
57071;SDS011;42956;51.366;11.298;2023-07-30T04:57:13;8.45;;;3.95;;
57071;SDS011;42956;51.366;11.298;2023-07-30T04:59:43;8.50;;;4.57;;
57071;SDS011;42956;51.366;11.298;2023-07-30T05:02:13;6.28;;;4.13;;
57071;SDS011;42956;51.366;11.298;2023-07-30T05:04:43;7.38;;;4.20;;
57071;SDS011;42956;51.366;11.298;2023-07-30T05:07:15;7.93;;;4.50;;
57071;SDS011;42956;51.366;11.298;2023-07-30T05:09:45;7.32;;;4.32;;
57071;SDS011;42956;51.366;11.298;2023-07-30T05:12:15;6.47;;;4.18;;
57071;SDS011;42956;51.366;11.298;2023-07-30T05:14:45;7.10;;;3.92;;
57071;SDS011;42956;51.366;11.298;2023-07-30T05:17:15;4.82;;;4.32;;
57071;SDS011;42956;51.366;11.298;2023-07-30T05:19:45;5.47;;;4.15;;
57071;SDS011;42956;51.366;11.298;2023-07-30T05:22:18;4.43;;;4.03;;
57071;SDS011;42956;51.366;11.298;2023-07-30T05:24:48;4.43;;;2.85;;
57071;SDS011;42956;51.366;11.298;2023-07-30T05:27:18;4.00;;;3.47;;
57071;SDS011;42956;51.366;11.298;2023-07-30T05:29:48;3.95;;;3.35;;
57071;SDS011;42956;51.366;11.298;2023-07-30T05:32:18;4.50;;;3.65;;
57071;SDS011;42956;51.366;11.298;2023-07-30T05:34:48;5.05;;;3.58;;
57071;SDS011;42956;51.366;11.298;2023-07-30T05:37:20;5.47;;;3.88;;
57071;SDS011;42956;51.366;11.298;2023-07-30T05:39:50;4.80;;;3.50;;
57071;SDS011;42956;51.366;11.298;2023-07-30T05:42:20;6.63;;;3.92;;
57071;SDS011;42956;51.366;11.298;2023-07-30T05:44:50;6.70;;;3.75;;
57071;SDS011;42956;51.366;11.298;2023-07-30T05:47:20;5.38;;;3.35;;
57071;SDS011;42956;51.366;11.298;2023-07-30T05:49:50;5.03;;;3.67;;
57071;SDS011;42956;51.366;11.298;2023-07-30T05:52:22;5.75;;;3.92;;
57071;SDS011;42956;51.366;11.298;2023-07-30T05:54:52;8.15;;;4.10;;
57071;SDS011;42956;51.366;11.298;2023-07-30T05:57:22;4.93;;;3.53;;
57071;SDS011;42956;51.366;11.298;2023-07-30T05:59:52;5.38;;;3.60;;
57071;SDS011;42956;51.366;11.298;2023-07-30T06:02:22;3.63;;;3.15;;
57071;SDS011;42956;51.366;11.298;2023-07-30T06:04:52;4.82;;;3.85;;
57071;SDS011;42956;51.366;11.298;2023-07-30T06:07:25;7.53;;;4.22;;
57071;SDS011;42956;51.366;11.298;2023-07-30T06:09:54;4.32;;;3.92;;
57071;SDS011;42956;51.366;11.298;2023-07-30T06:12:26;4.32;;;3.50;;
57071;SDS011;42956;51.366;11.298;2023-07-30T06:14:56;7.00;;;4.53;;
57071;SDS011;42956;51.366;11.298;2023-07-30T06:17:26;6.80;;;4.20;;
57071;SDS011;42956;51.366;11.298;2023-07-30T06:19:59;8.20;;;4.00;;
57071;SDS011;42956;51.366;11.298;2023-07-30T06:22:32;4.63;;;3.42;;
57071;SDS011;42956;51.366;11.298;2023-07-30T06:25:02;3.70;;;3.40;;
57071;SDS011;42956;51.366;11.298;2023-07-30T06:27:32;4.32;;;3.25;;
57071;SDS011;42956;51.366;11.298;2023-07-30T06:30:03;8.60;;;3.35;;
57071;SDS011;42956;51.366;11.298;2023-07-30T06:32:33;8.85;;;2.75;;
57071;SDS011;42956;51.366;11.298;2023-07-30T06:35:04;2.33;;;2.13;;
57071;SDS011;42956;51.366;11.298;2023-07-30T06:37:36;7.47;;;2.75;;
57071;SDS011;42956;51.366;11.298;2023-07-30T06:40:06;9.57;;;2.22;;
57071;SDS011;42956;51.366;11.298;2023-07-30T06:42:36;5.53;;;2.65;;
57071;SDS011;42956;51.366;11.298;2023-07-30T06:45:07;12.40;;;2.17;;
57071;SDS011;42956;51.366;11.298;2023-07-30T06:47:37;3.10;;;2.15;;
57071;SDS011;42956;51.366;11.298;2023-07-30T06:50:08;2.75;;;2.13;;
57071;SDS011;42956;51.366;11.298;2023-07-30T06:52:40;3.10;;;2.35;;
57071;SDS011;42956;51.366;11.298;2023-07-30T06:55:10;5.05;;;2.70;;
57071;SDS011;42956;51.366;11.298;2023-07-30T06:57:40;4.25;;;2.78;;
57071;SDS011;42956;51.366;11.298;2023-07-30T07:00:11;4.30;;;2.38;;
57071;SDS011;42956;51.366;11.298;2023-07-30T07:02:45;3.42;;;2.17;;
57071;SDS011;42956;51.366;11.298;2023-07-30T07:05:16;3.25;;;2.30;;
57071;SDS011;42956;51.366;11.298;2023-07-30T07:07:48;8.23;;;2.70;;
57071;SDS011;42956;51.366;11.298;2023-07-30T07:10:18;3.20;;;2.53;;
57071;SDS011;42956;51.366;11.298;2023-07-30T07:12:48;3.78;;;2.00;;
57071;SDS011;42956;51.366;11.298;2023-07-30T07:15:18;2.90;;;2.05;;
57071;SDS011;42956;51.366;11.298;2023-07-30T07:17:48;5.50;;;2.80;;
57071;SDS011;42956;51.366;11.298;2023-07-30T07:20:18;4.32;;;2.00;;
57071;SDS011;42956;51.366;11.298;2023-07-30T07:22:50;4.55;;;2.63;;
57071;SDS011;42956;51.366;11.298;2023-07-30T07:25:20;3.33;;;2.30;;
57071;SDS011;42956;51.366;11.298;2023-07-30T07:27:51;3.25;;;2.13;;
57071;SDS011;42956;51.366;11.298;2023-07-30T07:30:21;3.38;;;1.70;;
57071;SDS011;42956;51.366;11.298;2023-07-30T07:33:01;4.28;;;2.15;;
57071;SDS011;42956;51.366;11.298;2023-07-30T07:35:36;2.80;;;1.85;;
57071;SDS011;42956;51.366;11.298;2023-07-30T07:38:19;2.30;;;2.00;;
57071;SDS011;42956;51.366;11.298;2023-07-30T07:40:58;1.73;;;1.55;;
57071;SDS011;42956;51.366;11.298;2023-07-30T07:43:38;1.73;;;1.52;;
57071;SDS011;42956;51.366;11.298;2023-07-30T07:46:07;2.38;;;1.50;;
57071;SDS011;42956;51.366;11.298;2023-07-30T07:48:43;2.75;;;1.67;;
57071;SDS011;42956;51.366;11.298;2023-07-30T07:51:23;4.32;;;1.70;;
57071;SDS011;42956;51.366;11.298;2023-07-30T07:54:00;1.80;;;1.67;;
57071;SDS011;42956;51.366;11.298;2023-07-30T07:56:32;4.30;;;2.33;;
57071;SDS011;42956;51.366;11.298;2023-07-30T07:59:03;4.85;;;1.95;;
57071;SDS011;42956;51.366;11.298;2023-07-30T08:01:33;1.90;;;1.67;;
57071;SDS011;42956;51.366;11.298;2023-07-30T08:04:03;2.28;;;1.73;;
57071;SDS011;42956;51.366;11.298;2023-07-30T08:06:33;2.20;;;2.00;;
57071;SDS011;42956;51.366;11.298;2023-07-30T08:09:06;10.40;;;2.10;;
57071;SDS011;42956;51.366;11.298;2023-07-30T08:11:36;2.30;;;1.92;;
57071;SDS011;42956;51.366;11.298;2023-07-30T08:14:06;2.45;;;1.70;;
57071;SDS011;42956;51.366;11.298;2023-07-30T08:16:36;2.72;;;1.70;;
57071;SDS011;42956;51.366;11.298;2023-07-30T08:19:06;3.60;;;1.70;;
57071;SDS011;42956;51.366;11.298;2023-07-30T08:21:36;2.10;;;1.70;;
57071;SDS011;42956;51.366;11.298;2023-07-30T08:24:09;5.85;;;2.72;;
57071;SDS011;42956;51.366;11.298;2023-07-30T08:26:39;5.13;;;1.30;;
57071;SDS011;42956;51.366;11.298;2023-07-30T08:29:09;2.00;;;1.80;;
57071;SDS011;42956;51.366;11.298;2023-07-30T08:31:40;3.13;;;1.50;;
57071;SDS011;42956;51.366;11.298;2023-07-30T08:34:11;2.05;;;1.65;;
57071;SDS011;42956;51.366;11.298;2023-07-30T08:36:40;3.95;;;1.88;;
57071;SDS011;42956;51.366;11.298;2023-07-30T08:39:13;2.03;;;1.58;;
57071;SDS011;42956;51.366;11.298;2023-07-30T08:41:43;1.73;;;1.52;;
57071;SDS011;42956;51.366;11.298;2023-07-30T08:44:13;2.55;;;1.85;;
57071;SDS011;42956;51.366;11.298;2023-07-30T08:46:43;1.95;;;1.55;;
57071;SDS011;42956;51.366;11.298;2023-07-30T08:49:13;2.35;;;1.50;;
57071;SDS011;42956;51.366;11.298;2023-07-30T08:51:43;1.90;;;1.27;;
57071;SDS011;42956;51.366;11.298;2023-07-30T08:54:16;3.42;;;1.73;;
57071;SDS011;42956;51.366;11.298;2023-07-30T08:56:46;3.85;;;1.55;;
57071;SDS011;42956;51.366;11.298;2023-07-30T08:59:17;1.23;;;1.02;;
57071;SDS011;42956;51.366;11.298;2023-07-30T09:01:48;7.25;;;1.50;;
57071;SDS011;42956;51.366;11.298;2023-07-30T09:04:20;3.15;;;1.55;;
57071;SDS011;42956;51.366;11.298;2023-07-30T09:06:51;2.03;;;1.15;;
57071;SDS011;42956;51.366;11.298;2023-07-30T09:09:23;1.45;;;1.30;;
57071;SDS011;42956;51.366;11.298;2023-07-30T09:11:53;1.83;;;0.95;;
57071;SDS011;42956;51.366;11.298;2023-07-30T09:14:24;1.30;;;1.10;;
57071;SDS011;42956;51.366;11.298;2023-07-30T09:16:56;5.22;;;1.40;;
57071;SDS011;42956;51.366;11.298;2023-07-30T09:19:26;2.65;;;1.17;;
57071;SDS011;42956;51.366;11.298;2023-07-30T09:21:56;7.68;;;1.85;;
57071;SDS011;42956;51.366;11.298;2023-07-30T09:24:28;1.30;;;1.20;;
57071;SDS011;42956;51.366;11.298;2023-07-30T09:27:00;1.65;;;1.15;;
57071;SDS011;42956;51.366;11.298;2023-07-30T09:29:31;1.90;;;1.40;;
57071;SDS011;42956;51.366;11.298;2023-07-30T09:32:00;1.67;;;1.23;;
57071;SDS011;42956;51.366;11.298;2023-07-30T09:34:30;5.30;;;1.33;;
57071;SDS011;42956;51.366;11.298;2023-07-30T09:37:00;1.20;;;1.10;;
57071;SDS011;42956;51.366;11.298;2023-07-30T09:39:33;1.73;;;1.30;;
57071;SDS011;42956;51.366;11.298;2023-07-30T09:42:06;3.10;;;1.20;;
57071;SDS011;42956;51.366;11.298;2023-07-30T09:44:37;3.20;;;1.55;;
57071;SDS011;42956;51.366;11.298;2023-07-30T09:47:08;2.92;;;1.20;;
57071;SDS011;42956;51.366;11.298;2023-07-30T09:49:39;2.50;;;1.25;;
57071;SDS011;42956;51.366;11.298;2023-07-30T09:52:09;3.75;;;1.33;;
57071;SDS011;42956;51.366;11.298;2023-07-30T09:54:42;1.95;;;1.23;;
57071;SDS011;42956;51.366;11.298;2023-07-30T09:57:12;2.30;;;1.10;;
57071;SDS011;42956;51.366;11.298;2023-07-30T09:59:42;4.57;;;1.40;;
57071;SDS011;42956;51.366;11.298;2023-07-30T10:02:12;1.60;;;1.33;;
57071;SDS011;42956;51.366;11.298;2023-07-30T10:04:43;2.83;;;1.55;;
57071;SDS011;42956;51.366;11.298;2023-07-30T10:07:19;6.45;;;2.03;;
57071;SDS011;42956;51.366;11.298;2023-07-30T10:09:54;3.15;;;1.40;;
57071;SDS011;42956;51.366;11.298;2023-07-30T10:12:25;4.30;;;1.50;;
57071;SDS011;42956;51.366;11.298;2023-07-30T10:14:57;2.08;;;1.13;;
57071;SDS011;42956;51.366;11.298;2023-07-30T10:17:36;3.08;;;1.63;;
57071;SDS011;42956;51.366;11.298;2023-07-30T10:20:19;2.65;;;1.30;;
57071;SDS011;42956;51.366;11.298;2023-07-30T10:22:51;1.30;;;1.20;;
57071;SDS011;42956;51.366;11.298;2023-07-30T10:25:42;2.72;;;1.23;;
57071;SDS011;42956;51.366;11.298;2023-07-30T10:30:58;4.18;;;1.63;;
57071;SDS011;42956;51.366;11.298;2023-07-30T10:33:44;2.95;;;1.50;;
57071;SDS011;42956;51.366;11.298;2023-07-30T10:36:18;2.58;;;1.60;;
57071;SDS011;42956;51.366;11.298;2023-07-30T10:38:48;1.85;;;1.52;;
57071;SDS011;42956;51.366;11.298;2023-07-30T10:41:21;3.17;;;1.45;;
57071;SDS011;42956;51.366;11.298;2023-07-30T10:43:50;2.60;;;1.70;;
57071;SDS011;42956;51.366;11.298;2023-07-30T10:46:21;6.40;;;1.98;;
57071;SDS011;42956;51.366;11.298;2023-07-30T10:48:51;2.22;;;1.48;;
57071;SDS011;42956;51.366;11.298;2023-07-30T10:51:21;6.43;;;2.08;;
57071;SDS011;42956;51.366;11.298;2023-07-30T10:53:56;2.65;;;1.58;;
57071;SDS011;42956;51.366;11.298;2023-07-30T10:56:28;2.65;;;1.83;;
57071;SDS011;42956;51.366;11.298;2023-07-30T10:58:58;3.65;;;1.77;;
57071;SDS011;42956;51.366;11.298;2023-07-30T11:01:29;4.93;;;2.10;;
57071;SDS011;42956;51.366;11.298;2023-07-30T11:03:58;3.30;;;1.70;;
57071;SDS011;42956;51.366;11.298;2023-07-30T11:06:29;2.40;;;1.40;;
57071;SDS011;42956;51.366;11.298;2023-07-30T11:08:58;14.73;;;2.55;;
57071;SDS011;42956;51.366;11.298;2023-07-30T11:11:31;4.88;;;1.70;;
57071;SDS011;42956;51.366;11.298;2023-07-30T11:16:31;2.65;;;1.65;;
57071;SDS011;42956;51.366;11.298;2023-07-30T11:19:05;4.65;;;2.22;;
57071;SDS011;42956;51.366;11.298;2023-07-30T11:21:43;2.75;;;1.65;;
57071;SDS011;42956;51.366;11.298;2023-07-30T11:24:13;3.80;;;1.55;;
57071;SDS011;42956;51.366;11.298;2023-07-30T11:26:46;2.03;;;1.80;;
57071;SDS011;42956;51.366;11.298;2023-07-30T11:29:26;1.70;;;1.47;;
57071;SDS011;42956;51.366;11.298;2023-07-30T11:31:57;3.97;;;1.75;;
57071;SDS011;42956;51.366;11.298;2023-07-30T11:37:02;4.32;;;1.95;;
57071;SDS011;42956;51.366;11.298;2023-07-30T11:39:33;2.35;;;1.58;;
57071;SDS011;42956;51.366;11.298;2023-07-30T11:42:06;3.28;;;1.85;;
57071;SDS011;42956;51.366;11.298;2023-07-30T11:44:37;2.22;;;1.55;;
57071;SDS011;42956;51.366;11.298;2023-07-30T11:47:07;3.85;;;1.50;;
57071;SDS011;42956;51.366;11.298;2023-07-30T11:49:37;3.40;;;2.58;;
57071;SDS011;42956;51.366;11.298;2023-07-30T11:52:08;6.30;;;3.10;;
57071;SDS011;42956;51.366;11.298;2023-07-30T11:54:38;4.47;;;3.03;;
57071;SDS011;42956;51.366;11.298;2023-07-30T11:57:11;4.63;;;3.40;;
57071;SDS011;42956;51.366;11.298;2023-07-30T11:59:41;6.10;;;3.15;;
57071;SDS011;42956;51.366;11.298;2023-07-30T12:02:16;3.85;;;3.30;;
57071;SDS011;42956;51.366;11.298;2023-07-30T12:04:46;4.22;;;3.67;;
57071;SDS011;42956;51.366;11.298;2023-07-30T12:07:39;4.88;;;3.40;;
57071;SDS011;42956;51.366;11.298;2023-07-30T12:10:09;4.10;;;3.65;;
57071;SDS011;42956;51.366;11.298;2023-07-30T12:12:46;4.93;;;4.10;;
57071;SDS011;42956;51.366;11.298;2023-07-30T12:15:16;4.90;;;3.92;;
57071;SDS011;42956;51.366;11.298;2023-07-30T12:17:46;4.40;;;3.95;;
57071;SDS011;42956;51.366;11.298;2023-07-30T12:20:16;5.20;;;3.50;;
57071;SDS011;42956;51.366;11.298;2023-07-30T12:22:46;3.47;;;3.17;;
57071;SDS011;42956;51.366;11.298;2023-07-30T12:25:16;19.48;;;4.22;;
57071;SDS011;42956;51.366;11.298;2023-07-30T12:27:48;4.13;;;3.00;;
57071;SDS011;42956;51.366;11.298;2023-07-30T12:30:18;4.13;;;3.72;;
57071;SDS011;42956;51.366;11.298;2023-07-30T12:32:48;5.65;;;3.10;;
57071;SDS011;42956;51.366;11.298;2023-07-30T12:35:18;5.30;;;3.17;;
57071;SDS011;42956;51.366;11.298;2023-07-30T12:37:49;4.85;;;2.83;;
57071;SDS011;42956;51.366;11.298;2023-07-30T12:40:19;3.22;;;2.92;;
57071;SDS011;42956;51.366;11.298;2023-07-30T12:42:51;3.78;;;3.00;;
57071;SDS011;42956;51.366;11.298;2023-07-30T12:45:21;5.20;;;3.30;;
57071;SDS011;42956;51.366;11.298;2023-07-30T12:47:51;5.45;;;3.08;;
57071;SDS011;42956;51.366;11.298;2023-07-30T12:50:21;4.35;;;3.38;;
57071;SDS011;42956;51.366;11.298;2023-07-30T12:52:52;4.15;;;3.65;;
57071;SDS011;42956;51.366;11.298;2023-07-30T12:55:21;4.60;;;3.50;;
57071;SDS011;42956;51.366;11.298;2023-07-30T12:57:54;7.18;;;3.97;;
57071;SDS011;42956;51.366;11.298;2023-07-30T13:00:24;8.77;;;4.13;;
57071;SDS011;42956;51.366;11.298;2023-07-30T13:02:54;6.35;;;4.05;;
57071;SDS011;42956;51.366;11.298;2023-07-30T13:05:24;5.40;;;3.38;;
57071;SDS011;42956;51.366;11.298;2023-07-30T13:07:55;4.03;;;3.03;;
57071;SDS011;42956;51.366;11.298;2023-07-30T13:10:28;4.30;;;3.67;;
57071;SDS011;42956;51.366;11.298;2023-07-30T13:13:00;6.03;;;3.30;;
57071;SDS011;42956;51.366;11.298;2023-07-30T13:15:30;16.55;;;3.22;;
57071;SDS011;42956;51.366;11.298;2023-07-30T13:18:00;4.90;;;3.03;;
57071;SDS011;42956;51.366;11.298;2023-07-30T13:20:30;3.72;;;2.78;;
57071;SDS011;42956;51.366;11.298;2023-07-30T13:23:00;5.53;;;2.88;;
57071;SDS011;42956;51.366;11.298;2023-07-30T13:25:30;3.38;;;2.70;;
57071;SDS011;42956;51.366;11.298;2023-07-30T13:28:03;4.28;;;2.40;;
57071;SDS011;42956;51.366;11.298;2023-07-30T13:30:33;6.13;;;2.97;;
57071;SDS011;42956;51.366;11.298;2023-07-30T13:33:03;2.58;;;2.35;;
57071;SDS011;42956;51.366;11.298;2023-07-30T13:35:33;2.38;;;2.05;;
57071;SDS011;42956;51.366;11.298;2023-07-30T13:38:03;3.53;;;1.40;;
57071;SDS011;42956;51.366;11.298;2023-07-30T13:40:33;2.28;;;1.55;;
57071;SDS011;42956;51.366;11.298;2023-07-30T13:43:05;3.47;;;1.35;;
57071;SDS011;42956;51.366;11.298;2023-07-30T13:45:36;2.13;;;1.77;;
57071;SDS011;42956;51.366;11.298;2023-07-30T13:48:06;3.40;;;1.75;;
57071;SDS011;42956;51.366;11.298;2023-07-30T13:50:36;3.00;;;1.30;;
57071;SDS011;42956;51.366;11.298;2023-07-30T13:53:06;2.42;;;1.90;;
57071;SDS011;42956;51.366;11.298;2023-07-30T13:55:36;3.83;;;1.70;;
57071;SDS011;42956;51.366;11.298;2023-07-30T13:58:09;4.47;;;1.92;;
57071;SDS011;42956;51.366;11.298;2023-07-30T14:00:40;1.95;;;1.48;;
57071;SDS011;42956;51.366;11.298;2023-07-30T14:03:10;3.22;;;1.73;;
57071;SDS011;42956;51.366;11.298;2023-07-30T14:05:41;3.55;;;1.80;;
57071;SDS011;42956;51.366;11.298;2023-07-30T14:08:10;1.55;;;1.27;;
57071;SDS011;42956;51.366;11.298;2023-07-30T14:10:40;2.17;;;1.25;;
57071;SDS011;42956;51.366;11.298;2023-07-30T14:13:13;1.95;;;1.40;;
57071;SDS011;42956;51.366;11.298;2023-07-30T14:15:43;3.88;;;1.50;;
57071;SDS011;42956;51.366;11.298;2023-07-30T14:18:13;1.77;;;1.63;;
57071;SDS011;42956;51.366;11.298;2023-07-30T14:20:43;3.50;;;2.03;;
57071;SDS011;42956;51.366;11.298;2023-07-30T14:23:17;3.80;;;2.08;;
57071;SDS011;42956;51.366;11.298;2023-07-30T14:25:47;2.15;;;1.90;;
57071;SDS011;42956;51.366;11.298;2023-07-30T14:28:20;4.43;;;1.50;;
57071;SDS011;42956;51.366;11.298;2023-07-30T14:30:50;3.63;;;1.63;;
57071;SDS011;42956;51.366;11.298;2023-07-30T14:33:20;1.80;;;1.70;;
57071;SDS011;42956;51.366;11.298;2023-07-30T14:35:50;3.25;;;2.00;;
57071;SDS011;42956;51.366;11.298;2023-07-30T14:38:20;3.00;;;1.90;;
57071;SDS011;42956;51.366;11.298;2023-07-30T14:40:50;4.07;;;2.13;;
57071;SDS011;42956;51.366;11.298;2023-07-30T14:43:22;2.95;;;2.08;;
57071;SDS011;42956;51.366;11.298;2023-07-30T14:45:52;3.30;;;1.52;;
57071;SDS011;42956;51.366;11.298;2023-07-30T14:48:22;4.82;;;1.77;;
57071;SDS011;42956;51.366;11.298;2023-07-30T14:50:52;2.83;;;1.73;;
57071;SDS011;42956;51.366;11.298;2023-07-30T14:53:22;2.45;;;1.38;;
57071;SDS011;42956;51.366;11.298;2023-07-30T14:55:52;2.55;;;1.90;;
57071;SDS011;42956;51.366;11.298;2023-07-30T14:58:25;4.30;;;2.10;;
57071;SDS011;42956;51.366;11.298;2023-07-30T15:00:55;2.15;;;1.42;;
57071;SDS011;42956;51.366;11.298;2023-07-30T15:03:25;3.47;;;1.63;;